West Phoenix — 3ETB9 — position and weather

sailwx.info

Track history (hours):
 
Tides and Currents Weather Stations Pressure Air Temp Water Temp Dewpoint Dewpoint Depression Visibility Wind Speed Wind Dir Waves Ship Positions

West Phoenix

Last reported at 2018-Jun-23 07:00 UTC. Time now 2018-Jun-23 08:26 UTC.
Position N 57°06' E 000°48'.

Length 118 m; draft 21.5 m.

Type: Other ship. MMSI: 370506000.

Wind from 320

Air temperature 11.6 ° C
Visibility: greater than 10.8 NM
Dewpoint 6.4 ° C

Date/timePositionNaut miles runAvg speedWind from/ knotsBaromVisibWave heightAir tempDewpointWater temp
2018-Jun-23 07:00N 57°06' E 000°48'0 0.0 320 10.8 11.6 6.4
2018-Jun-23 06:00N 57°06' E 000°48'0 0.0 320 10.8 11.6 6.6
2018-Jun-23 05:00N 57°06' E 000°48'0 0.0 320 10.8 11.4 7.0
2018-Jun-23 04:00N 57°06' E 000°48'0 0.0 310 10.8 11.3 6.9
2018-Jun-23 03:00N 57°06' E 000°48'0 0.0 310 10.8 11.2 7.1
2018-Jun-23 02:00N 57°06' E 000°48'0 0.0 310 10.8 11.2 7.1
2018-Jun-23 01:00N 57°06' E 000°48'0 0.0 320 10.8 11.4 6.7
2018-Jun-23 00:00N 57°06' E 000°48'0 0.0 330 10.8 11.5 6.4
2018-Jun-22 23:00N 57°06' E 000°48'0 0.0 340 10.8 11.7 6.6
2018-Jun-22 22:00N 57°06' E 000°48'0 0.0 340 10.8 11.8 6.5
2018-Jun-22 21:00N 57°06' E 000°48'0 0.0 340 10.8 11.9 6.0
2018-Jun-22 20:00N 57°06' E 000°48'0 0.0 340 10.8 12.1 6.5
2018-Jun-22 19:00N 57°06' E 000°48'0 0.0 340 5.4 12.4 6.3
2018-Jun-22 18:00N 57°06' E 000°48'0 0.0 330 10.8 12.4 6.8
2018-Jun-22 17:00N 57°06' E 000°48'0 0.0 330 10.8 11.8 6.7
2018-Jun-22 16:00N 57°06' E 000°48'0 0.0 340 10.8 12.1 6.2
2018-Jun-22 15:00N 57°06' E 000°48'0 0.0 330 10.8 11.9 7.0
2018-Jun-22 14:00N 57°06' E 000°48'0 0.0 330 5.4 11.4 7.9
2018-Jun-22 13:00N 57°06' E 000°48'0 0.0 330 5.4 11.8 8.2
2018-Jun-22 12:00N 57°06' E 000°48'0 0.0 340 10.8 13.2 7.0
2018-Jun-22 11:00N 57°06' E 000°48'0 0.0 340 5.4 12.9 6.1
2018-Jun-22 10:00N 57°06' E 000°48'0 0.0 340 5.4 12.5 6.2
2018-Jun-22 09:00N 57°06' E 000°48'0 0.0 340 5.4 12.5 5.1
2018-Jun-22 08:00N 57°06' E 000°48'0 0.0 340 5.4 12.1 5.2
2018-Jun-22 07:00N 57°06' E 000°48'0 0.0 350 5.4 11.7 5.1
2018-Jun-22 06:00N 57°06' E 000°48'0 0.0 350 5.4 11.1 4.2
2018-Jun-22 05:00N 57°06' E 000°48'0 0.0 350 5.4 10.9 4.0
2018-Jun-22 04:00N 57°06' E 000°48'0 0.0 350 5.4 10.8 4.0
2018-Jun-22 03:00N 57°06' E 000°48'0 0.0 360 5.4 10.7 4.4
2018-Jun-22 02:00N 57°06' E 000°48'0 0.0 350 5.4 10.8 3.8
2018-Jun-22 01:00N 57°06' E 000°48'0 0.0 350 5.4 10.8 4.8
2018-Jun-22 00:00N 57°06' E 000°48'0 0.0 340 5.4 10.9 4.6
2018-Jun-21 23:00N 57°06' E 000°48'0 0.0 340 5.4 11.0 4.1
2018-Jun-21 22:00N 57°06' E 000°48'0 0.0 350 5.4 11.2 4.7
2018-Jun-21 21:00N 57°06' E 000°48'0 0.0 350 5.4 11.1 4.5
2018-Jun-21 20:00N 57°06' E 000°48'0 0.0 340 5.4 11.5 4.4
2018-Jun-21 19:00N 57°06' E 000°48'0 0.0 340 5.4 11.4 5.1
2018-Jun-21 18:00N 57°06' E 000°48'0 0.0 340 2.2 10.9 7.1
2018-Jun-21 17:00N 57°06' E 000°48'0 0.0 340 2.2 10.6 6.8
2018-Jun-21 16:00N 57°06' E 000°48'0 0.0 340 2.2 10.5 6.4
2018-Jun-21 15:00N 57°06' E 000°48'0 0.0 340 2.2 10.7 6.4
2018-Jun-21 14:00N 57°06' E 000°48'0 0.0 330 5.4 10.9 5.2
2018-Jun-21 13:00N 57°06' E 000°48'0 0.0 340 2.2 10.6 5.5
2018-Jun-21 12:00N 57°06' E 000°48'0 0.0 330 5.4 10.8 5.3
2018-Jun-21 11:00N 57°06' E 000°48'0 0.0 330 10.8 11.3 5.1
2018-Jun-21 10:00N 57°06' E 000°48'0 0.0 330 2.2 10.8 5.6
2018-Jun-21 09:00N 57°06' E 000°48'0 0.0 330 10.8 11.5 3.8
2018-Jun-21 08:00N 57°06' E 000°48'0 0.0 350 5.4 11.9 3.7
2018-Jun-21 07:00N 57°06' E 000°48'0 0.0 340 5.4 11.4 4.4
2018-Jun-21 06:00N 57°06' E 000°48'0 0.0 350 5.4 11.0 4.7
2018-Jun-21 05:00N 57°06' E 000°48'0 0.0 340 10.8 10.5 5.0
2018-Jun-21 04:00N 57°06' E 000°48'0 0.0 350 10.8 9.7 5.6
2018-Jun-21 03:00N 57°06' E 000°48'0 0.0 330 10.8 9.6 4.2
2018-Jun-21 02:00N 57°06' E 000°48'0 0.0 010 2.2 8.7 4.9
2018-Jun-21 01:00N 57°06' E 000°48'0 0.0 290 10.8 9.6 4.8
2018-Jun-21 00:00N 57°06' E 000°48'0 0.0 270 5.4 9.2 5.4
2018-Jun-20 23:00N 57°06' E 000°48'0 0.0 300 5.4 9.9 4.6
2018-Jun-20 22:00N 57°06' E 000°48'0 0.0 290 10.8 10.9 5.4
2018-Jun-20 21:00N 57°06' E 000°48'0 0.0 310 10.8 11.1 5.4
2018-Jun-20 20:00N 57°06' E 000°48'0 0.0 310 10.8 11.3 4.9
2018-Jun-20 19:00N 57°06' E 000°48'0 0.0 350 10.8 11.8 4.5
2018-Jun-20 18:00N 57°06' E 000°48'0 0.0 340 10.8 12.0 5.6
2018-Jun-20 17:00N 57°06' E 000°48'0 0.0 350 10.8 12.4 5.5
2018-Jun-20 16:00N 57°06' E 000°48'0 0.0 360 10.8 12.4 5.1
2018-Jun-20 15:00N 57°06' E 000°48'0 0.0 360 10.8 11.9 6.2
2018-Jun-20 14:00N 57°06' E 000°48'0 0.0 360 10.8 12.3 7.3
2018-Jun-20 13:00N 57°06' E 000°48'0 0.0 360 10.8 12.1 7.3
2018-Jun-20 12:00N 57°06' E 000°48'0 0.0 360 10.8 12.0 7.6
2018-Jun-20 11:00N 57°06' E 000°48'0 0.0 020 10.8 12.1 8.8
2018-Jun-20 10:00N 57°06' E 000°48'0 0.0 030 10.8 11.3 9.7
2018-Jun-20 09:00N 57°06' E 000°48'0 0.0 260 5.4 13.012.0
2018-Jun-20 08:00N 57°06' E 000°48'0 0.0 140 2.2 11.610.4
2018-Jun-20 07:00N 57°06' E 000°48'0 0.0 120 10.8 11.1 9.5
2018-Jun-20 06:00N 57°06' E 000°48'0 0.0 110 2.2 10.6 9.2
2018-Jun-20 05:00N 57°06' E 000°48'0 0.0 110 2.2 10.5 8.9
2018-Jun-20 04:00N 57°06' E 000°48'0 0.0 110 2.2 10.5 9.0
2018-Jun-20 03:00N 57°06' E 000°48'0 0.0 110 5.4 10.2 8.8
2018-Jun-20 02:00N 57°06' E 000°48'0 0.0 150 2.2 10.5 9.2
2018-Jun-20 01:00N 57°06' E 000°48'0 0.0 180 10.8 10.9 7.0
2018-Jun-20 00:00N 57°06' E 000°48'0 0.0 200 5.4 11.4 7.6
2018-Jun-19 23:00N 57°06' E 000°48'0 0.0 220 10.8 11.8 7.4
2018-Jun-19 22:00N 57°06' E 000°48'0 0.0 220 10.8 12.0 7.7
2018-Jun-19 21:00N 57°06' E 000°48'0 0.0 230 10.8 12.5 7.2
2018-Jun-19 20:00N 57°06' E 000°48'0 0.0 230 10.8 12.2 7.9
2018-Jun-19 19:00N 57°06' E 000°48'0 0.0 220 10.8 12.3 7.5
2018-Jun-19 18:00N 57°06' E 000°48'0 0.0 230 10.8 12.1 7.2
2018-Jun-19 17:00N 57°06' E 000°48'0 0.0 240 10.8 12.2 7.0
2018-Jun-19 16:00N 57°06' E 000°48'0 0.0 240 10.8 12.2 7.1
2018-Jun-19 15:00N 57°06' E 000°48'0 0.0 260 10.8 12.7 6.2
2018-Jun-19 14:00N 57°06' E 000°48'0 0.0 270 10.8 12.3 5.9
2018-Jun-19 13:00N 57°06' E 000°48'0 0.0 260 10.8 12.1 5.6
2018-Jun-19 12:00N 57°06' E 000°48'0 0.0 270 10.8 11.7 5.8
2018-Jun-19 11:00N 57°06' E 000°48'0 0.0 260 10.8 11.6 5.5
2018-Jun-19 10:00N 57°06' E 000°48'0 0.0 260 10.8 11.6 5.9
2018-Jun-19 09:00N 57°06' E 000°48'0 0.0 260 10.8 11.6 5.9
2018-Jun-19 08:00N 57°06' E 000°48'0 0.0 260 10.8 11.4 5.5
2018-Jun-19 07:00N 57°06' E 000°48'0 0.0 260 10.8 11.4 5.7
2018-Jun-19 06:00N 57°06' E 000°48'0 0.0 260 10.8 11.4 5.4
2018-Jun-19 05:00N 57°06' E 000°48'0 0.0 260 10.8 11.4 4.7
2018-Jun-19 04:00N 57°06' E 000°48'0 0.0 260 10.8 11.5 4.9
2018-Jun-19 03:00N 57°06' E 000°48'0 0.0 260 10.8 11.7 5.6
2018-Jun-19 02:00N 57°06' E 000°48'0 0.0 270 10.8 11.9 6.2
2018-Jun-19 01:00N 57°06' E 000°48'0 0.0 280 10.8 12.3 6.3
2018-Jun-19 00:00N 57°06' E 000°48'0 0.0 270 10.8 12.4 5.8
2018-Jun-18 23:00N 57°06' E 000°48'0 0.0 260 10.8 12.7 7.6
2018-Jun-18 22:00N 57°06' E 000°48'0 0.0 260 10.8 12.9 8.2
2018-Jun-18 21:00N 57°06' E 000°48'0 0.0 260 10.8 13.4 8.0
2018-Jun-18 20:00N 57°06' E 000°48'0 0.0 240 10.8 13.6 7.6
2018-Jun-18 19:00N 57°06' E 000°48'0 0.0 240 10.8 13.4 7.5
2018-Jun-18 18:00N 57°06' E 000°48'0 0.0 250 10.8 13.2 7.6
2018-Jun-18 17:00N 57°06' E 000°48'0 0.0 240 10.8 13.1 7.3
2018-Jun-18 16:00N 57°06' E 000°48'0 0.0 240 10.8 13.0 7.4
2018-Jun-18 15:00N 57°06' E 000°48'0 0.0 250 10.8 13.1 7.3
2018-Jun-18 14:00N 57°06' E 000°48'0 0.0 250 10.8 12.7 7.5
2018-Jun-18 13:00N 57°06' E 000°48'0 0.0 250 10.8 12.7 7.6
2018-Jun-18 12:00N 57°06' E 000°48'0 0.0 260 10.8 12.7 7.9
2018-Jun-18 11:00N 57°06' E 000°48'0 0.0 260 10.8 12.4 7.5
2018-Jun-18 10:00N 57°06' E 000°48'0 0.0 260 10.8 12.3 7.5
2018-Jun-18 09:00N 57°06' E 000°48'0 0.0 270 10.8 12.2 8.1
2018-Jun-18 08:00N 57°06' E 000°48'0 0.0 260 10.8 12.2 8.3
2018-Jun-18 07:00N 57°06' E 000°48'0 0.0 260 10.8 12.4 8.3
2018-Jun-18 06:00N 57°06' E 000°48'0 0.0 260 10.8 12.5 8.6
2018-Jun-18 05:00N 57°06' E 000°48'0 0.0 250 10.8 12.7 9.2
2018-Jun-18 04:00N 57°06' E 000°48'0 0.0 250 10.8 12.810.3
2018-Jun-18 03:00N 57°06' E 000°48'0 0.0 240 10.8 13.111.0
2018-Jun-18 02:00N 57°06' E 000°48'0 0.0 240 5.4 13.111.0
2018-Jun-18 01:00N 57°06' E 000°48'0 0.0 220 10.8 13.010.9
2018-Jun-18 00:00N 57°06' E 000°48'0 0.0 210 10.8 13.0 9.8
2018-Jun-17 23:00N 57°06' E 000°48'0 0.0 220 10.8 13.0 9.7
2018-Jun-17 22:00N 57°06' E 000°48'0 0.0 210 10.8 13.0 9.7
2018-Jun-17 21:00N 57°06' E 000°48'0 0.0 200 10.8 13.0 9.6
2018-Jun-17 20:00N 57°06' E 000°48'0 0.0 190 10.8 12.8 9.8
2018-Jun-17 19:00N 57°06' E 000°48'0 0.0 190 10.8 12.610.0
2018-Jun-17 18:00N 57°06' E 000°48'0 0.0 200 10.8 12.4 8.9
2018-Jun-17 17:00N 57°06' E 000°48'0 0.0 200 10.8 12.3 8.1
2018-Jun-17 16:00N 57°06' E 000°48'0 0.0 210 10.8 12.1 7.9
2018-Jun-17 15:00N 57°06' E 000°48'0 0.0 230 10.8 12.0 6.8
2018-Jun-17 14:00N 57°06' E 000°48'0 0.0 230 10.8 11.9 8.3
2018-Jun-17 13:00N 57°06' E 000°48'0 0.0 240 10.8 11.5 8.1
2018-Jun-17 12:00N 57°06' E 000°48'0 0.0 250 10.8 11.5 8.3
2018-Jun-17 11:00N 57°06' E 000°48'0 0.0 270 10.8 12.1 9.0
2018-Jun-17 10:00N 57°06' E 000°48'0 0.0 290 10.8 13.1 8.3
2018-Jun-17 09:00N 57°06' E 000°48'0 0.0 290 10.8 14.2 8.2
2018-Jun-17 08:00N 57°06' E 000°48'0 0.0 320 10.8 13.6 8.4
2018-Jun-17 07:00N 57°06' E 000°48'0 0.0 320 10.8 12.8 9.0
2018-Jun-17 06:00N 57°06' E 000°48'0 0.0 350 10.8 12.6 9.2
2018-Jun-17 05:00N 57°06' E 000°48'0 0.0 340 10.8 12.310.0
2018-Jun-17 04:00N 57°06' E 000°48'0 0.0 360 10.8 11.6 9.2
2018-Jun-17 03:00N 57°06' E 000°48'0 0.0 020 10.8 11.7 9.3
2018-Jun-17 02:00N 57°06' E 000°48'0 0.0 100 10.8 11.6 9.3
2018-Jun-17 01:00N 57°06' E 000°48'0 0.0 120 10.8 11.6 9.0
2018-Jun-17 00:00N 57°06' E 000°48'0 0.0 130 5.4 11.410.1
2018-Jun-16 23:00N 57°06' E 000°48'0 0.0 140 10.8 11.6 9.8
2018-Jun-16 22:00N 57°06' E 000°48'0 0.0 130 10.8 11.5 9.9
2018-Jun-16 21:00N 57°06' E 000°48'0 0.0 110 2.2 11.2 9.5
2018-Jun-16 20:00N 57°06' E 000°48'0 0.0 180 10.8 11.4 7.6
2018-Jun-16 19:00N 57°06' E 000°48'0 0.0 150 10.8 11.8 7.5
2018-Jun-16 18:00N 57°06' E 000°48'0 0.0 150 10.8 11.8 7.2
2018-Jun-16 17:00N 57°06' E 000°48'0 0.0 170 10.8 11.5 6.9
2018-Jun-16 16:00N 57°06' E 000°48'0 0.0 200 10.8 11.1 7.6
2018-Jun-16 15:00N 57°06' E 000°48'0 0.0 210 5.4 11.7 7.1
2018-Jun-16 14:00N 57°06' E 000°48'0 0.0 170 10.8 12.310.3
2018-Jun-16 13:00N 57°06' E 000°48'0 0.0 160 10.8 12.5 9.9
2018-Jun-16 12:00N 57°06' E 000°48'0 0.0 150 10.8 13.0 9.5
2018-Jun-16 11:00N 57°06' E 000°48'0 0.0 150 10.8 13.4 9.6
2018-Jun-16 10:00N 57°06' E 000°48'0 0.0 160 10.8 12.6 9.2
2018-Jun-16 09:00N 57°06' E 000°48'0 0.0 160 10.8 12.5 8.2
2018-Jun-16 08:00N 57°06' E 000°48'0 0.0 180 10.8 12.3 8.2
2018-Jun-16 07:00N 57°06' E 000°48'0 0.0 180 10.8 11.9 8.4
2018-Jun-16 06:00N 57°06' E 000°48'0 0.0 190 10.8 11.8 8.4
2018-Jun-16 05:00N 57°06' E 000°48'0 0.0 200 10.8 11.7 8.5
2018-Jun-16 04:00N 57°06' E 000°48'0 0.0 210 10.8 11.7 8.5
2018-Jun-16 03:00N 57°06' E 000°48'0 0.0 230 10.8 11.8 8.2
2018-Jun-16 02:00N 57°06' E 000°48'0 0.0 230 10.8 11.9 8.3
2018-Jun-16 01:00N 57°06' E 000°48'0 0.0 230 10.8 11.9 8.6
2018-Jun-16 00:00N 57°06' E 000°48'0 0.0 240 10.8 12.1 8.3
2018-Jun-15 23:00N 57°06' E 000°48'0 0.0 230 10.8 12.1 8.4
2018-Jun-15 22:00N 57°06' E 000°48'0 0.0 230 10.8 12.0 8.6
2018-Jun-15 21:00N 57°06' E 000°48'0 0.0 230 10.8 12.2 8.2
2018-Jun-15 20:00N 57°06' E 000°48'0 0.0 220 10.8 12.1 8.1
2018-Jun-15 19:00N 57°06' E 000°48'0 0.0 210 10.8 12.0 8.3
2018-Jun-15 18:00N 57°06' E 000°48'0 0.0 220 10.8 12.1 7.6
2018-Jun-15 17:00N 57°06' E 000°48'0 0.0 220 10.8 12.0 7.5
2018-Jun-15 16:00N 57°06' E 000°48'0 0.0 230 10.8 12.2 7.1
2018-Jun-15 15:00N 57°06' E 000°48'0 0.0 240 10.8 12.0 7.1
2018-Jun-15 14:00N 57°06' E 000°48'0 0.0 240 10.8 11.9 6.8
2018-Jun-15 13:00N 57°06' E 000°48'0 0.0 250 10.8 12.0 6.6
2018-Jun-15 12:00N 57°06' E 000°48'0 0.0 260 10.8 11.9 6.9
2018-Jun-15 11:00N 57°06' E 000°48'0 0.0 260 10.8 11.6 6.6
2018-Jun-15 10:00N 57°06' E 000°48'0 0.0 260 10.8 11.6 6.9
2018-Jun-15 09:00N 57°06' E 000°48'0 0.0 260 10.8 11.7 6.2
2018-Jun-15 08:00N 57°06' E 000°48'0 0.0 250 10.8 11.8 6.3
2018-Jun-15 07:00N 57°06' E 000°48'0 0.0 260 10.8 11.8 6.6
2018-Jun-15 06:00N 57°06' E 000°48'0 0.0 240 10.8 11.8 7.0
2018-Jun-15 05:00N 57°06' E 000°48'0 0.0 250 10.8 11.8 6.4
2018-Jun-15 04:00N 57°06' E 000°48'0 0.0 250 10.8 11.5 6.2
2018-Jun-15 03:00N 57°06' E 000°48'0 0.0 260 10.8 11.3 6.5
2018-Jun-15 02:00N 57°06' E 000°48'0 0.0 260 10.8 11.3 6.5
2018-Jun-15 01:00N 57°06' E 000°48'0 0.0 260 10.8 11.6 6.8
2018-Jun-15 00:00N 57°06' E 000°48'0 0.0 260 10.8 11.9 6.7
2018-Jun-14 23:00N 57°06' E 000°48'0 0.0 250 10.8 12.1 6.7
2018-Jun-14 22:00N 57°06' E 000°48'0 0.0 270 10.8 12.4 6.5
2018-Jun-14 21:00N 57°06' E 000°48'0 0.0 260 10.8 12.6 6.6
2018-Jun-14 20:00N 57°06' E 000°48'0 0.0 260 10.8 12.7 6.5
2018-Jun-14 19:00N 57°06' E 000°48'0 0.0 260 10.8 12.8 6.4
2018-Jun-14 18:00N 57°06' E 000°48'0 0.0 260 10.8 12.9 6.8
2018-Jun-14 17:00N 57°06' E 000°48'0 0.0 270 10.8 13.3 6.4
2018-Jun-14 16:00N 57°06' E 000°48'0 0.0 270 10.8 13.4 7.1
2018-Jun-14 15:00N 57°06' E 000°48'0 0.0 270 10.8 13.4 7.7
2018-Jun-14 14:00N 57°06' E 000°48'0 0.0 300 10.8 14.3 6.9
2018-Jun-14 13:00N 57°06' E 000°48'0 0.0 260 5.4 13.3 8.6
2018-Jun-14 12:00N 57°06' E 000°48'0 0.0 240 5.4 13.8 7.8
2018-Jun-14 11:00N 57°06' E 000°48'0 0.0 220 5.4 14.2 8.4
2018-Jun-14 10:00N 57°06' E 000°48'0 0.0 210 5.4 14.210.0
2018-Jun-14 09:00N 57°06' E 000°48'0 0.0 210 2.2 13.810.2
2018-Jun-14 08:00N 57°06' E 000°48'0 0.0 200 5.4 13.910.2
2018-Jun-14 07:00N 57°06' E 000°48'0 0.0 200 5.4 13.810.3
2018-Jun-14 06:00N 57°06' E 000°48'0 0.0 210 5.4 13.610.2
2018-Jun-14 05:00N 57°06' E 000°48'0 0.0 200 5.4 13.610.2
2018-Jun-14 04:00N 57°06' E 000°48'0 0.0 200 5.4 13.711.0
2018-Jun-14 03:00N 57°06' E 000°48'0 0.0 200 2.2 13.411.2
2018-Jun-14 02:00N 57°06' E 000°48'0 0.0 200 2.2 13.511.1
2018-Jun-14 01:00N 57°06' E 000°48'0 0.0 190 2.2 13.610.0
2018-Jun-14 00:00N 57°06' E 000°48'0 0.0 180 2.2 12.810.8
2018-Jun-13 23:00N 57°06' E 000°48'0 0.0 200 2.2 13.210.0
2018-Jun-13 22:00N 57°06' E 000°48'0 0.0 200 2.2 13.110.5
2018-Jun-13 21:00N 57°06' E 000°48'0 0.0 190 5.4 13.2 9.9
2018-Jun-13 20:00N 57°06' E 000°48'0 0.0 200 10.8 13.1 9.5
2018-Jun-13 19:00N 57°06' E 000°48'0 0.0 200 10.8 12.8 9.0
2018-Jun-13 18:00N 57°06' E 000°48'0 0.0 200 10.8 12.6 8.9
2018-Jun-13 17:00N 57°06' E 000°48'0 0.0 210 10.8 12.7 9.0
2018-Jun-13 16:00N 57°06' E 000°48'0 0.0 180 10.8 12.6 8.6
2018-Jun-13 15:00N 57°06' E 000°48'0 0.0 180 10.8 12.4 6.7
2018-Jun-13 14:00N 57°06' E 000°48'0 0.0 180 10.8 12.3 5.2
2018-Jun-13 13:00N 57°06' E 000°48'0 0.0 200 10.8 12.2 5.3
2018-Jun-13 12:00N 57°06' E 000°48'0 0.0 210 10.8 12.0 6.1
2018-Jun-13 11:00N 57°06' E 000°48'0 0.0 240 10.8 11.9 6.0
2018-Jun-13 10:00N 57°06' E 000°48'0 0.0 250 10.8 11.9 5.2
2018-Jun-13 09:00N 57°06' E 000°48'0 0.0 240 10.8 12.0 4.4
2018-Jun-13 08:00N 57°06' E 000°48'0 0.0 260 10.8 12.3 3.6
2018-Jun-13 07:00N 57°06' E 000°48'   320 10.8 12.8 2.6
Track history (hours):
 
Tides and Currents Weather Stations Pressure Air Temp Water Temp Dewpoint Dewpoint Depression Visibility Wind Speed Wind Dir Waves Ship Positions

West Phoenix

Last reported at 2018-Jun-23 07:00 UTC. Time now 2018-Jun-23 08:26 UTC.
Position N 57°06' E 000°48'.

Length 118 m; draft 21.5 m.

Type: Other ship. MMSI: 370506000.

Wind from 320

Air temperature 11.6 ° C
Visibility: greater than 10.8 NM
Dewpoint 6.4 ° C

Date/timePositionNaut miles runAvg speedWind from/ knotsBaromVisibWave heightAir tempDewpointWater temp
2018-Jun-23 07:00N 57°06' E 000°48'0 0.0 320 10.8 11.6 6.4
2018-Jun-23 06:00N 57°06' E 000°48'0 0.0 320 10.8 11.6 6.6
2018-Jun-23 05:00N 57°06' E 000°48'0 0.0 320 10.8 11.4 7.0
2018-Jun-23 04:00N 57°06' E 000°48'0 0.0 310 10.8 11.3 6.9
2018-Jun-23 03:00N 57°06' E 000°48'0 0.0 310 10.8 11.2 7.1
2018-Jun-23 02:00N 57°06' E 000°48'0 0.0 310 10.8 11.2 7.1
2018-Jun-23 01:00N 57°06' E 000°48'0 0.0 320 10.8 11.4 6.7
2018-Jun-23 00:00N 57°06' E 000°48'0 0.0 330 10.8 11.5 6.4
2018-Jun-22 23:00N 57°06' E 000°48'0 0.0 340 10.8 11.7 6.6
2018-Jun-22 22:00N 57°06' E 000°48'0 0.0 340 10.8 11.8 6.5
2018-Jun-22 21:00N 57°06' E 000°48'0 0.0 340 10.8 11.9 6.0
2018-Jun-22 20:00N 57°06' E 000°48'0 0.0 340 10.8 12.1 6.5
2018-Jun-22 19:00N 57°06' E 000°48'0 0.0 340 5.4 12.4 6.3
2018-Jun-22 18:00N 57°06' E 000°48'0 0.0 330 10.8 12.4 6.8
2018-Jun-22 17:00N 57°06' E 000°48'0 0.0 330 10.8 11.8 6.7
2018-Jun-22 16:00N 57°06' E 000°48'0 0.0 340 10.8 12.1 6.2
2018-Jun-22 15:00N 57°06' E 000°48'0 0.0 330 10.8 11.9 7.0
2018-Jun-22 14:00N 57°06' E 000°48'0 0.0 330 5.4 11.4 7.9
2018-Jun-22 13:00N 57°06' E 000°48'0 0.0 330 5.4 11.8 8.2
2018-Jun-22 12:00N 57°06' E 000°48'0 0.0 340 10.8 13.2 7.0
2018-Jun-22 11:00N 57°06' E 000°48'0 0.0 340 5.4 12.9 6.1
2018-Jun-22 10:00N 57°06' E 000°48'0 0.0 340 5.4 12.5 6.2
2018-Jun-22 09:00N 57°06' E 000°48'0 0.0 340 5.4 12.5 5.1
2018-Jun-22 08:00N 57°06' E 000°48'0 0.0 340 5.4 12.1 5.2
2018-Jun-22 07:00N 57°06' E 000°48'0 0.0 350 5.4 11.7 5.1
2018-Jun-22 06:00N 57°06' E 000°48'0 0.0 350 5.4 11.1 4.2
2018-Jun-22 05:00N 57°06' E 000°48'0 0.0 350 5.4 10.9 4.0
2018-Jun-22 04:00N 57°06' E 000°48'0 0.0 350 5.4 10.8 4.0
2018-Jun-22 03:00N 57°06' E 000°48'0 0.0 360 5.4 10.7 4.4
2018-Jun-22 02:00N 57°06' E 000°48'0 0.0 350 5.4 10.8 3.8
2018-Jun-22 01:00N 57°06' E 000°48'0 0.0 350 5.4 10.8 4.8
2018-Jun-22 00:00N 57°06' E 000°48'0 0.0 340 5.4 10.9 4.6
2018-Jun-21 23:00N 57°06' E 000°48'0 0.0 340 5.4 11.0 4.1
2018-Jun-21 22:00N 57°06' E 000°48'0 0.0 350 5.4 11.2 4.7
2018-Jun-21 21:00N 57°06' E 000°48'0 0.0 350 5.4 11.1 4.5
2018-Jun-21 20:00N 57°06' E 000°48'0 0.0 340 5.4 11.5 4.4
2018-Jun-21 19:00N 57°06' E 000°48'0 0.0 340 5.4 11.4 5.1
2018-Jun-21 18:00N 57°06' E 000°48'0 0.0 340 2.2 10.9 7.1
2018-Jun-21 17:00N 57°06' E 000°48'0 0.0 340 2.2 10.6 6.8
2018-Jun-21 16:00N 57°06' E 000°48'0 0.0 340 2.2 10.5 6.4
2018-Jun-21 15:00N 57°06' E 000°48'0 0.0 340 2.2 10.7 6.4
2018-Jun-21 14:00N 57°06' E 000°48'0 0.0 330 5.4 10.9 5.2
2018-Jun-21 13:00N 57°06' E 000°48'0 0.0 340 2.2 10.6 5.5
2018-Jun-21 12:00N 57°06' E 000°48'0 0.0 330 5.4 10.8 5.3
2018-Jun-21 11:00N 57°06' E 000°48'0 0.0 330 10.8 11.3 5.1
2018-Jun-21 10:00N 57°06' E 000°48'0 0.0 330 2.2 10.8 5.6
2018-Jun-21 09:00N 57°06' E 000°48'0 0.0 330 10.8 11.5 3.8
2018-Jun-21 08:00N 57°06' E 000°48'0 0.0 350 5.4 11.9 3.7
2018-Jun-21 07:00N 57°06' E 000°48'0 0.0 340 5.4 11.4 4.4
2018-Jun-21 06:00N 57°06' E 000°48'0 0.0 350 5.4 11.0 4.7
2018-Jun-21 05:00N 57°06' E 000°48'0 0.0 340 10.8 10.5 5.0
2018-Jun-21 04:00N 57°06' E 000°48'0 0.0 350 10.8 9.7 5.6
2018-Jun-21 03:00N 57°06' E 000°48'0 0.0 330 10.8 9.6 4.2
2018-Jun-21 02:00N 57°06' E 000°48'0 0.0 010 2.2 8.7 4.9
2018-Jun-21 01:00N 57°06' E 000°48'0 0.0 290 10.8 9.6 4.8
2018-Jun-21 00:00N 57°06' E 000°48'0 0.0 270 5.4 9.2 5.4
2018-Jun-20 23:00N 57°06' E 000°48'0 0.0 300 5.4 9.9 4.6
2018-Jun-20 22:00N 57°06' E 000°48'0 0.0 290 10.8 10.9 5.4
2018-Jun-20 21:00N 57°06' E 000°48'0 0.0 310 10.8 11.1 5.4
2018-Jun-20 20:00N 57°06' E 000°48'0 0.0 310 10.8 11.3 4.9
2018-Jun-20 19:00N 57°06' E 000°48'0 0.0 350 10.8 11.8 4.5
2018-Jun-20 18:00N 57°06' E 000°48'0 0.0 340 10.8 12.0 5.6
2018-Jun-20 17:00N 57°06' E 000°48'0 0.0 350 10.8 12.4 5.5
2018-Jun-20 16:00N 57°06' E 000°48'0 0.0 360 10.8 12.4 5.1
2018-Jun-20 15:00N 57°06' E 000°48'0 0.0 360 10.8 11.9 6.2
2018-Jun-20 14:00N 57°06' E 000°48'0 0.0 360 10.8 12.3 7.3
2018-Jun-20 13:00N 57°06' E 000°48'0 0.0 360 10.8 12.1 7.3
2018-Jun-20 12:00N 57°06' E 000°48'0 0.0 360 10.8 12.0 7.6
2018-Jun-20 11:00N 57°06' E 000°48'0 0.0 020 10.8 12.1 8.8
2018-Jun-20 10:00N 57°06' E 000°48'0 0.0 030 10.8 11.3 9.7
2018-Jun-20 09:00N 57°06' E 000°48'0 0.0 260 5.4 13.012.0
2018-Jun-20 08:00N 57°06' E 000°48'0 0.0 140 2.2 11.610.4
2018-Jun-20 07:00N 57°06' E 000°48'0 0.0 120 10.8 11.1 9.5
2018-Jun-20 06:00N 57°06' E 000°48'0 0.0 110 2.2 10.6 9.2
2018-Jun-20 05:00N 57°06' E 000°48'0 0.0 110 2.2 10.5 8.9
2018-Jun-20 04:00N 57°06' E 000°48'0 0.0 110 2.2 10.5 9.0
2018-Jun-20 03:00N 57°06' E 000°48'0 0.0 110 5.4 10.2 8.8
2018-Jun-20 02:00N 57°06' E 000°48'0 0.0 150 2.2 10.5 9.2
2018-Jun-20 01:00N 57°06' E 000°48'0 0.0 180 10.8 10.9 7.0
2018-Jun-20 00:00N 57°06' E 000°48'0 0.0 200 5.4 11.4 7.6
2018-Jun-19 23:00N 57°06' E 000°48'0 0.0 220 10.8 11.8 7.4
2018-Jun-19 22:00N 57°06' E 000°48'0 0.0 220 10.8 12.0 7.7
2018-Jun-19 21:00N 57°06' E 000°48'0 0.0 230 10.8 12.5 7.2
2018-Jun-19 20:00N 57°06' E 000°48'0 0.0 230 10.8 12.2 7.9
2018-Jun-19 19:00N 57°06' E 000°48'0 0.0 220 10.8 12.3 7.5
2018-Jun-19 18:00N 57°06' E 000°48'0 0.0 230 10.8 12.1 7.2
2018-Jun-19 17:00N 57°06' E 000°48'0 0.0 240 10.8 12.2 7.0
2018-Jun-19 16:00N 57°06' E 000°48'0 0.0 240 10.8 12.2 7.1
2018-Jun-19 15:00N 57°06' E 000°48'0 0.0 260 10.8 12.7 6.2
2018-Jun-19 14:00N 57°06' E 000°48'0 0.0 270 10.8 12.3 5.9
2018-Jun-19 13:00N 57°06' E 000°48'0 0.0 260 10.8 12.1 5.6
2018-Jun-19 12:00N 57°06' E 000°48'0 0.0 270 10.8 11.7 5.8
2018-Jun-19 11:00N 57°06' E 000°48'0 0.0 260 10.8 11.6 5.5
2018-Jun-19 10:00N 57°06' E 000°48'0 0.0 260 10.8 11.6 5.9
2018-Jun-19 09:00N 57°06' E 000°48'0 0.0 260 10.8 11.6 5.9
2018-Jun-19 08:00N 57°06' E 000°48'0 0.0 260 10.8 11.4 5.5
2018-Jun-19 07:00N 57°06' E 000°48'0 0.0 260 10.8 11.4 5.7
2018-Jun-19 06:00N 57°06' E 000°48'0 0.0 260 10.8 11.4 5.4
2018-Jun-19 05:00N 57°06' E 000°48'0 0.0 260 10.8 11.4 4.7
2018-Jun-19 04:00N 57°06' E 000°48'0 0.0 260 10.8 11.5 4.9
2018-Jun-19 03:00N 57°06' E 000°48'0 0.0 260 10.8 11.7 5.6
2018-Jun-19 02:00N 57°06' E 000°48'0 0.0 270 10.8 11.9 6.2
2018-Jun-19 01:00N 57°06' E 000°48'0 0.0 280 10.8 12.3 6.3
2018-Jun-19 00:00N 57°06' E 000°48'0 0.0 270 10.8 12.4 5.8
2018-Jun-18 23:00N 57°06' E 000°48'0 0.0 260 10.8 12.7 7.6
2018-Jun-18 22:00N 57°06' E 000°48'0 0.0 260 10.8 12.9 8.2
2018-Jun-18 21:00N 57°06' E 000°48'0 0.0 260 10.8 13.4 8.0
2018-Jun-18 20:00N 57°06' E 000°48'0 0.0 240 10.8 13.6 7.6
2018-Jun-18 19:00N 57°06' E 000°48'0 0.0 240 10.8 13.4 7.5
2018-Jun-18 18:00N 57°06' E 000°48'0 0.0 250 10.8 13.2 7.6
2018-Jun-18 17:00N 57°06' E 000°48'0 0.0 240 10.8 13.1 7.3
2018-Jun-18 16:00N 57°06' E 000°48'0 0.0 240 10.8 13.0 7.4
2018-Jun-18 15:00N 57°06' E 000°48'0 0.0 250 10.8 13.1 7.3
2018-Jun-18 14:00N 57°06' E 000°48'0 0.0 250 10.8 12.7 7.5
2018-Jun-18 13:00N 57°06' E 000°48'0 0.0 250 10.8 12.7 7.6
2018-Jun-18 12:00N 57°06' E 000°48'0 0.0 260 10.8 12.7 7.9
2018-Jun-18 11:00N 57°06' E 000°48'0 0.0 260 10.8 12.4 7.5
2018-Jun-18 10:00N 57°06' E 000°48'0 0.0 260 10.8 12.3 7.5
2018-Jun-18 09:00N 57°06' E 000°48'0 0.0 270 10.8 12.2 8.1
2018-Jun-18 08:00N 57°06' E 000°48'0 0.0 260 10.8 12.2 8.3
2018-Jun-18 07:00N 57°06' E 000°48'0 0.0 260 10.8 12.4 8.3
2018-Jun-18 06:00N 57°06' E 000°48'0 0.0 260 10.8 12.5 8.6
2018-Jun-18 05:00N 57°06' E 000°48'0 0.0 250 10.8 12.7 9.2
2018-Jun-18 04:00N 57°06' E 000°48'0 0.0 250 10.8 12.810.3
2018-Jun-18 03:00N 57°06' E 000°48'0 0.0 240 10.8 13.111.0
2018-Jun-18 02:00N 57°06' E 000°48'0 0.0 240 5.4 13.111.0
2018-Jun-18 01:00N 57°06' E 000°48'0 0.0 220 10.8 13.010.9
2018-Jun-18 00:00N 57°06' E 000°48'0 0.0 210 10.8 13.0 9.8
2018-Jun-17 23:00N 57°06' E 000°48'0 0.0 220 10.8 13.0 9.7
2018-Jun-17 22:00N 57°06' E 000°48'0 0.0 210 10.8 13.0 9.7
2018-Jun-17 21:00N 57°06' E 000°48'0 0.0 200 10.8 13.0 9.6
2018-Jun-17 20:00N 57°06' E 000°48'0 0.0 190 10.8 12.8 9.8
2018-Jun-17 19:00N 57°06' E 000°48'0 0.0 190 10.8 12.610.0
2018-Jun-17 18:00N 57°06' E 000°48'0 0.0 200 10.8 12.4 8.9
2018-Jun-17 17:00N 57°06' E 000°48'0 0.0 200 10.8 12.3 8.1
2018-Jun-17 16:00N 57°06' E 000°48'0 0.0 210 10.8 12.1 7.9
2018-Jun-17 15:00N 57°06' E 000°48'0 0.0 230 10.8 12.0 6.8
2018-Jun-17 14:00N 57°06' E 000°48'0 0.0 230 10.8 11.9 8.3
2018-Jun-17 13:00N 57°06' E 000°48'0 0.0 240 10.8 11.5 8.1
2018-Jun-17 12:00N 57°06' E 000°48'0 0.0 250 10.8 11.5 8.3
2018-Jun-17 11:00N 57°06' E 000°48'0 0.0 270 10.8 12.1 9.0
2018-Jun-17 10:00N 57°06' E 000°48'0 0.0 290 10.8 13.1 8.3
2018-Jun-17 09:00N 57°06' E 000°48'0 0.0 290 10.8 14.2 8.2
2018-Jun-17 08:00N 57°06' E 000°48'0 0.0 320 10.8 13.6 8.4
2018-Jun-17 07:00N 57°06' E 000°48'0 0.0 320 10.8 12.8 9.0
2018-Jun-17 06:00N 57°06' E 000°48'0 0.0 350 10.8 12.6 9.2
2018-Jun-17 05:00N 57°06' E 000°48'0 0.0 340 10.8 12.310.0
2018-Jun-17 04:00N 57°06' E 000°48'0 0.0 360 10.8 11.6 9.2
2018-Jun-17 03:00N 57°06' E 000°48'0 0.0 020 10.8 11.7 9.3
2018-Jun-17 02:00N 57°06' E 000°48'0 0.0 100 10.8 11.6 9.3
2018-Jun-17 01:00N 57°06' E 000°48'0 0.0 120 10.8 11.6 9.0
2018-Jun-17 00:00N 57°06' E 000°48'0 0.0 130 5.4 11.410.1
2018-Jun-16 23:00N 57°06' E 000°48'0 0.0 140 10.8 11.6 9.8
2018-Jun-16 22:00N 57°06' E 000°48'0 0.0 130 10.8 11.5 9.9
2018-Jun-16 21:00N 57°06' E 000°48'0 0.0 110 2.2 11.2 9.5
2018-Jun-16 20:00N 57°06' E 000°48'0 0.0 180 10.8 11.4 7.6
2018-Jun-16 19:00N 57°06' E 000°48'0 0.0 150 10.8 11.8 7.5
2018-Jun-16 18:00N 57°06' E 000°48'0 0.0 150 10.8 11.8 7.2
2018-Jun-16 17:00N 57°06' E 000°48'0 0.0 170 10.8 11.5 6.9
2018-Jun-16 16:00N 57°06' E 000°48'0 0.0 200 10.8 11.1 7.6
2018-Jun-16 15:00N 57°06' E 000°48'0 0.0 210 5.4 11.7 7.1
2018-Jun-16 14:00N 57°06' E 000°48'0 0.0 170 10.8 12.310.3
2018-Jun-16 13:00N 57°06' E 000°48'0 0.0 160 10.8 12.5 9.9
2018-Jun-16 12:00N 57°06' E 000°48'0 0.0 150 10.8 13.0 9.5
2018-Jun-16 11:00N 57°06' E 000°48'0 0.0 150 10.8 13.4 9.6
2018-Jun-16 10:00N 57°06' E 000°48'0 0.0 160 10.8 12.6 9.2
2018-Jun-16 09:00N 57°06' E 000°48'0 0.0 160 10.8 12.5 8.2
2018-Jun-16 08:00N 57°06' E 000°48'0 0.0 180 10.8 12.3 8.2
2018-Jun-16 07:00N 57°06' E 000°48'0 0.0 180 10.8 11.9 8.4
2018-Jun-16 06:00N 57°06' E 000°48'0 0.0 190 10.8 11.8 8.4
2018-Jun-16 05:00N 57°06' E 000°48'0 0.0 200 10.8 11.7 8.5
2018-Jun-16 04:00N 57°06' E 000°48'0 0.0 210 10.8 11.7 8.5
2018-Jun-16 03:00N 57°06' E 000°48'0 0.0 230 10.8 11.8 8.2
2018-Jun-16 02:00N 57°06' E 000°48'0 0.0 230 10.8 11.9 8.3
2018-Jun-16 01:00N 57°06' E 000°48'0 0.0 230 10.8 11.9 8.6
2018-Jun-16 00:00N 57°06' E 000°48'0 0.0 240 10.8 12.1 8.3
2018-Jun-15 23:00N 57°06' E 000°48'0 0.0 230 10.8 12.1 8.4
2018-Jun-15 22:00N 57°06' E 000°48'0 0.0 230 10.8 12.0 8.6
2018-Jun-15 21:00N 57°06' E 000°48'0 0.0 230 10.8 12.2 8.2
2018-Jun-15 20:00N 57°06' E 000°48'0 0.0 220 10.8 12.1 8.1
2018-Jun-15 19:00N 57°06' E 000°48'0 0.0 210 10.8 12.0 8.3
2018-Jun-15 18:00N 57°06' E 000°48'0 0.0 220 10.8 12.1 7.6
2018-Jun-15 17:00N 57°06' E 000°48'0 0.0 220 10.8 12.0 7.5
2018-Jun-15 16:00N 57°06' E 000°48'0 0.0 230 10.8 12.2 7.1
2018-Jun-15 15:00N 57°06' E 000°48'0 0.0 240 10.8 12.0 7.1
2018-Jun-15 14:00N 57°06' E 000°48'0 0.0 240 10.8 11.9 6.8
2018-Jun-15 13:00N 57°06' E 000°48'0 0.0 250 10.8 12.0 6.6
2018-Jun-15 12:00N 57°06' E 000°48'0 0.0 260 10.8 11.9 6.9
2018-Jun-15 11:00N 57°06' E 000°48'0 0.0 260 10.8 11.6 6.6
2018-Jun-15 10:00N 57°06' E 000°48'0 0.0 260 10.8 11.6 6.9
2018-Jun-15 09:00N 57°06' E 000°48'0 0.0 260 10.8 11.7 6.2
2018-Jun-15 08:00N 57°06' E 000°48'0 0.0 250 10.8 11.8 6.3
2018-Jun-15 07:00N 57°06' E 000°48'0 0.0 260 10.8 11.8 6.6
2018-Jun-15 06:00N 57°06' E 000°48'0 0.0 240 10.8 11.8 7.0
2018-Jun-15 05:00N 57°06' E 000°48'0 0.0 250 10.8 11.8 6.4
2018-Jun-15 04:00N 57°06' E 000°48'0 0.0 250 10.8 11.5 6.2
2018-Jun-15 03:00N 57°06' E 000°48'0 0.0 260 10.8 11.3 6.5
2018-Jun-15 02:00N 57°06' E 000°48'0 0.0 260 10.8 11.3 6.5
2018-Jun-15 01:00N 57°06' E 000°48'0 0.0 260 10.8 11.6 6.8
2018-Jun-15 00:00N 57°06' E 000°48'0 0.0 260 10.8 11.9 6.7
2018-Jun-14 23:00N 57°06' E 000°48'0 0.0 250 10.8 12.1 6.7
2018-Jun-14 22:00N 57°06' E 000°48'0 0.0 270 10.8 12.4 6.5
2018-Jun-14 21:00N 57°06' E 000°48'0 0.0 260 10.8 12.6 6.6
2018-Jun-14 20:00N 57°06' E 000°48'0 0.0 260 10.8 12.7 6.5
2018-Jun-14 19:00N 57°06' E 000°48'0 0.0 260 10.8 12.8 6.4
2018-Jun-14 18:00N 57°06' E 000°48'0 0.0 260 10.8 12.9 6.8
2018-Jun-14 17:00N 57°06' E 000°48'0 0.0 270 10.8 13.3 6.4
2018-Jun-14 16:00N 57°06' E 000°48'0 0.0 270 10.8 13.4 7.1
2018-Jun-14 15:00N 57°06' E 000°48'0 0.0 270 10.8 13.4 7.7
2018-Jun-14 14:00N 57°06' E 000°48'0 0.0 300 10.8 14.3 6.9
2018-Jun-14 13:00N 57°06' E 000°48'0 0.0 260 5.4 13.3 8.6
2018-Jun-14 12:00N 57°06' E 000°48'0 0.0 240 5.4 13.8 7.8
2018-Jun-14 11:00N 57°06' E 000°48'0 0.0 220 5.4 14.2 8.4
2018-Jun-14 10:00N 57°06' E 000°48'0 0.0 210 5.4 14.210.0
2018-Jun-14 09:00N 57°06' E 000°48'0 0.0 210 2.2 13.810.2
2018-Jun-14 08:00N 57°06' E 000°48'0 0.0 200 5.4 13.910.2
2018-Jun-14 07:00N 57°06' E 000°48'0 0.0 200 5.4 13.810.3
2018-Jun-14 06:00N 57°06' E 000°48'0 0.0 210 5.4 13.610.2
2018-Jun-14 05:00N 57°06' E 000°48'0 0.0 200 5.4 13.610.2
2018-Jun-14 04:00N 57°06' E 000°48'0 0.0 200 5.4 13.711.0
2018-Jun-14 03:00N 57°06' E 000°48'0 0.0 200 2.2 13.411.2
2018-Jun-14 02:00N 57°06' E 000°48'0 0.0 200 2.2 13.511.1
2018-Jun-14 01:00N 57°06' E 000°48'0 0.0 190 2.2 13.610.0
2018-Jun-14 00:00N 57°06' E 000°48'0 0.0 180 2.2 12.810.8
2018-Jun-13 23:00N 57°06' E 000°48'0 0.0 200 2.2 13.210.0
2018-Jun-13 22:00N 57°06' E 000°48'0 0.0 200 2.2 13.110.5
2018-Jun-13 21:00N 57°06' E 000°48'0 0.0 190 5.4 13.2 9.9
2018-Jun-13 20:00N 57°06' E 000°48'0 0.0 200 10.8 13.1 9.5
2018-Jun-13 19:00N 57°06' E 000°48'0 0.0 200 10.8 12.8 9.0
2018-Jun-13 18:00N 57°06' E 000°48'0 0.0 200 10.8 12.6 8.9
2018-Jun-13 17:00N 57°06' E 000°48'0 0.0 210 10.8 12.7 9.0
2018-Jun-13 16:00N 57°06' E 000°48'0 0.0 180 10.8 12.6 8.6
2018-Jun-13 15:00N 57°06' E 000°48'0 0.0 180 10.8 12.4 6.7
2018-Jun-13 14:00N 57°06' E 000°48'0 0.0 180 10.8 12.3 5.2
2018-Jun-13 13:00N 57°06' E 000°48'0 0.0 200 10.8 12.2 5.3
2018-Jun-13 12:00N 57°06' E 000°48'0 0.0 210 10.8 12.0 6.1
2018-Jun-13 11:00N 57°06' E 000°48'0 0.0 240 10.8 11.9 6.0
2018-Jun-13 10:00N 57°06' E 000°48'0 0.0 250 10.8 11.9 5.2
2018-Jun-13 09:00N 57°06' E 000°48'0 0.0 240 10.8 12.0 4.4
2018-Jun-13 08:00N 57°06' E 000°48'0 0.0 260 10.8 12.3 3.6
2018-Jun-13 07:00N 57°06' E 000°48'   320 10.8 12.8 2.6

Dump ship's entire track history